sensor_id;sensor_type;location;lat;lon;timestamp;temperature;humidity
51878;SHT31;37911;51.526;11.536;2023-02-10T00:00:42;-1.14;75.71
51878;SHT31;37911;51.526;11.536;2023-02-10T00:03:48;-1.15;75.78
51878;SHT31;37911;51.526;11.536;2023-02-10T00:06:51;-1.21;75.91
51878;SHT31;37911;51.526;11.536;2023-02-10T00:09:55;-1.22;76.11
51878;SHT31;37911;51.526;11.536;2023-02-10T00:12:58;-1.28;76.22
51878;SHT31;37911;51.526;11.536;2023-02-10T00:16:02;-1.28;76.20
51878;SHT31;37911;51.526;11.536;2023-02-10T00:19:09;-1.31;76.20
51878;SHT31;37911;51.526;11.536;2023-02-10T00:22:12;-1.34;76.40
51878;SHT31;37911;51.526;11.536;2023-02-10T00:25:16;-1.32;76.35
51878;SHT31;37911;51.526;11.536;2023-02-10T00:28:19;-1.28;76.37
51878;SHT31;37911;51.526;11.536;2023-02-10T00:31:22;-1.22;76.26
51878;SHT31;37911;51.526;11.536;2023-02-10T00:34:28;-1.14;76.16
51878;SHT31;37911;51.526;11.536;2023-02-10T00:37:32;-1.11;76.24
51878;SHT31;37911;51.526;11.536;2023-02-10T00:40:35;-1.09;76.72
51878;SHT31;37911;51.526;11.536;2023-02-10T00:43:39;-1.07;76.95
51878;SHT31;37911;51.526;11.536;2023-02-10T00:46:42;-1.02;77.11
51878;SHT31;37911;51.526;11.536;2023-02-10T00:49:48;-1.02;77.24
51878;SHT31;37911;51.526;11.536;2023-02-10T00:52:51;-0.98;77.35
51878;SHT31;37911;51.526;11.536;2023-02-10T00:55:55;-0.95;77.22
51878;SHT31;37911;51.526;11.536;2023-02-10T00:58:58;-0.95;77.28
51878;SHT31;37911;51.526;11.536;2023-02-10T01:02:02;-0.92;77.15
51878;SHT31;37911;51.526;11.536;2023-02-10T01:05:08;-0.90;77.12
51878;SHT31;37911;51.526;11.536;2023-02-10T01:08:11;-0.83;77.21
51878;SHT31;37911;51.526;11.536;2023-02-10T01:11:15;-0.81;77.16
51878;SHT31;37911;51.526;11.536;2023-02-10T01:14:20;-0.77;77.12
51878;SHT31;37911;51.526;11.536;2023-02-10T01:17:23;-0.74;76.97
51878;SHT31;37911;51.526;11.536;2023-02-10T01:20:29;-0.74;77.11
51878;SHT31;37911;51.526;11.536;2023-02-10T01:23:32;-0.71;77.19
51878;SHT31;37911;51.526;11.536;2023-02-10T01:26:35;-0.70;77.38
51878;SHT31;37911;51.526;11.536;2023-02-10T01:29:39;-0.70;77.49
51878;SHT31;37911;51.526;11.536;2023-02-10T01:32:43;-0.68;77.51
51878;SHT31;37911;51.526;11.536;2023-02-10T01:35:49;-0.68;77.81
51878;SHT31;37911;51.526;11.536;2023-02-10T01:38:52;-0.70;78.01
51878;SHT31;37911;51.526;11.536;2023-02-10T01:41:55;-0.73;77.97
51878;SHT31;37911;51.526;11.536;2023-02-10T01:45:20;-0.70;78.09
51878;SHT31;37911;51.526;11.536;2023-02-10T01:48:25;-0.70;78.02
51878;SHT31;37911;51.526;11.536;2023-02-10T01:51:36;-0.66;78.16
51878;SHT31;37911;51.526;11.536;2023-02-10T01:54:43;-0.67;78.16
51878;SHT31;37911;51.526;11.536;2023-02-10T01:57:49;-0.68;78.06
51878;SHT31;37911;51.526;11.536;2023-02-10T02:00:54;-0.67;78.20
51878;SHT31;37911;51.526;11.536;2023-02-10T02:03:58;-0.68;78.05
51878;SHT31;37911;51.526;11.536;2023-02-10T02:07:06;-0.68;78.25
51878;SHT31;37911;51.526;11.536;2023-02-10T02:10:11;-0.67;78.14
51878;SHT31;37911;51.526;11.536;2023-02-10T02:13:18;-0.61;77.98
51878;SHT31;37911;51.526;11.536;2023-02-10T02:16:34;-0.61;77.94
51878;SHT31;37911;51.526;11.536;2023-02-10T02:20:15;-0.60;77.97
51878;SHT31;37911;51.526;11.536;2023-02-10T02:23:58;-0.61;78.12
51878;SHT31;37911;51.526;11.536;2023-02-10T02:30:46;-0.58;78.29
51878;SHT31;37911;51.526;11.536;2023-02-10T02:33:58;-0.56;78.27
51878;SHT31;37911;51.526;11.536;2023-02-10T02:37:03;-0.57;78.38
51878;SHT31;37911;51.526;11.536;2023-02-10T02:40:10;-0.54;78.41
51878;SHT31;37911;51.526;11.536;2023-02-10T02:43:14;-0.54;78.43
51878;SHT31;37911;51.526;11.536;2023-02-10T02:46:23;-0.49;78.52
51878;SHT31;37911;51.526;11.536;2023-02-10T02:49:37;-0.53;78.68
51878;SHT31;37911;51.526;11.536;2023-02-10T02:52:51;-0.47;78.70
51878;SHT31;37911;51.526;11.536;2023-02-10T02:56:05;-0.44;78.88
51878;SHT31;37911;51.526;11.536;2023-02-10T02:59:18;-0.44;78.96
51878;SHT31;37911;51.526;11.536;2023-02-10T03:02:23;-0.43;79.10
51878;SHT31;37911;51.526;11.536;2023-02-10T03:05:32;-0.46;79.22
51878;SHT31;37911;51.526;11.536;2023-02-10T03:08:37;-0.43;79.39
51878;SHT31;37911;51.526;11.536;2023-02-10T03:11:41;-0.40;79.64
51878;SHT31;37911;51.526;11.536;2023-02-10T03:14:44;-0.39;79.77
51878;SHT31;37911;51.526;11.536;2023-02-10T03:17:48;-0.36;79.96
51878;SHT31;37911;51.526;11.536;2023-02-10T03:20:53;-0.33;80.13
51878;SHT31;37911;51.526;11.536;2023-02-10T03:23:57;-0.30;80.38
51878;SHT31;37911;51.526;11.536;2023-02-10T03:27:01;-0.32;80.60
51878;SHT31;37911;51.526;11.536;2023-02-10T03:30:07;-0.27;80.80
51878;SHT31;37911;51.526;11.536;2023-02-10T03:33:10;-0.26;80.90
51878;SHT31;37911;51.526;11.536;2023-02-10T03:36:16;-0.23;80.93
51878;SHT31;37911;51.526;11.536;2023-02-10T03:39:19;-0.23;81.02
51878;SHT31;37911;51.526;11.536;2023-02-10T03:42:22;-0.23;81.10
51878;SHT31;37911;51.526;11.536;2023-02-10T03:45:26;-0.22;81.12
51878;SHT31;37911;51.526;11.536;2023-02-10T03:48:30;-0.25;81.20
51878;SHT31;37911;51.526;11.536;2023-02-10T03:51:36;-0.25;81.25
51878;SHT31;37911;51.526;11.536;2023-02-10T03:54:39;-0.25;81.29
51878;SHT31;37911;51.526;11.536;2023-02-10T03:57:43;-0.25;81.26
51878;SHT31;37911;51.526;11.536;2023-02-10T04:00:46;-0.27;81.30
51878;SHT31;37911;51.526;11.536;2023-02-10T04:03:50;-0.23;81.40
51878;SHT31;37911;51.526;11.536;2023-02-10T04:06:55;-0.23;81.43
51878;SHT31;37911;51.526;11.536;2023-02-10T04:09:59;-0.22;81.43
51878;SHT31;37911;51.526;11.536;2023-02-10T04:13:02;-0.23;81.47
51878;SHT31;37911;51.526;11.536;2023-02-10T04:16:08;-0.22;81.53
51878;SHT31;37911;51.526;11.536;2023-02-10T04:19:11;-0.20;81.56
51878;SHT31;37911;51.526;11.536;2023-02-10T04:22:17;-0.22;81.64
51878;SHT31;37911;51.526;11.536;2023-02-10T04:25:20;-0.22;81.66
51878;SHT31;37911;51.526;11.536;2023-02-10T04:28:23;-0.20;81.65
51878;SHT31;37911;51.526;11.536;2023-02-10T04:31:27;-0.19;81.73
51878;SHT31;37911;51.526;11.536;2023-02-10T04:34:30;-0.19;81.75
51878;SHT31;37911;51.526;11.536;2023-02-10T04:37:36;-0.23;81.74
51878;SHT31;37911;51.526;11.536;2023-02-10T04:40:39;-0.32;81.78
51878;SHT31;37911;51.526;11.536;2023-02-10T04:43:43;-0.36;81.97
51878;SHT31;37911;51.526;11.536;2023-02-10T04:46:46;-0.37;81.82
51878;SHT31;37911;51.526;11.536;2023-02-10T04:49:51;-0.47;81.93
51878;SHT31;37911;51.526;11.536;2023-02-10T04:52:57;-0.52;82.12
51878;SHT31;37911;51.526;11.536;2023-02-10T04:56:00;-0.57;82.33
51878;SHT31;37911;51.526;11.536;2023-02-10T04:59:04;-0.60;82.43
51878;SHT31;37911;51.526;11.536;2023-02-10T05:02:07;-0.64;82.51
51878;SHT31;37911;51.526;11.536;2023-02-10T05:05:11;-0.66;82.63
51878;SHT31;37911;51.526;11.536;2023-02-10T05:08:17;-0.70;82.57
51878;SHT31;37911;51.526;11.536;2023-02-10T05:11:24;-0.74;82.65
51878;SHT31;37911;51.526;11.536;2023-02-10T05:14:27;-0.78;82.72
51878;SHT31;37911;51.526;11.536;2023-02-10T05:17:30;-0.78;82.71
51878;SHT31;37911;51.526;11.536;2023-02-10T05:20:34;-0.83;82.88
51878;SHT31;37911;51.526;11.536;2023-02-10T05:23:40;-0.84;83.00
51878;SHT31;37911;51.526;11.536;2023-02-10T05:26:43;-0.90;83.05
51878;SHT31;37911;51.526;11.536;2023-02-10T05:29:47;-0.92;82.97
51878;SHT31;37911;51.526;11.536;2023-02-10T05:32:50;-0.98;82.88
51878;SHT31;37911;51.526;11.536;2023-02-10T05:35:53;-1.05;82.86
51878;SHT31;37911;51.526;11.536;2023-02-10T05:38:59;-1.09;82.89
51878;SHT31;37911;51.526;11.536;2023-02-10T05:42:15;-1.19;83.03
51878;SHT31;37911;51.526;11.536;2023-02-10T05:45:18;-1.24;83.50
51878;SHT31;37911;51.526;11.536;2023-02-10T05:48:22;-1.25;83.46
51878;SHT31;37911;51.526;11.536;2023-02-10T05:51:26;-1.27;84.03
51878;SHT31;37911;51.526;11.536;2023-02-10T05:54:31;-1.30;83.89
51878;SHT31;37911;51.526;11.536;2023-02-10T05:57:35;-1.32;83.85
51878;SHT31;37911;51.526;11.536;2023-02-10T06:00:39;-1.39;84.08
51878;SHT31;37911;51.526;11.536;2023-02-10T06:03:42;-1.35;84.09
51878;SHT31;37911;51.526;11.536;2023-02-10T06:06:45;-1.35;84.04
51878;SHT31;37911;51.526;11.536;2023-02-10T06:09:51;-1.36;84.17
51878;SHT31;37911;51.526;11.536;2023-02-10T06:12:54;-1.39;84.41
51878;SHT31;37911;51.526;11.536;2023-02-10T06:15:57;-1.38;84.55
51878;SHT31;37911;51.526;11.536;2023-02-10T06:19:01;-1.36;84.77
51878;SHT31;37911;51.526;11.536;2023-02-10T06:22:06;-1.34;84.84
51878;SHT31;37911;51.526;11.536;2023-02-10T06:25:13;-1.35;84.83
51878;SHT31;37911;51.526;11.536;2023-02-10T06:28:16;-1.38;84.89
51878;SHT31;37911;51.526;11.536;2023-02-10T06:31:19;-1.36;84.83
51878;SHT31;37911;51.526;11.536;2023-02-10T06:34:24;-1.36;84.79
51878;SHT31;37911;51.526;11.536;2023-02-10T06:37:27;-1.34;84.68
51878;SHT31;37911;51.526;11.536;2023-02-10T06:40:33;-1.35;84.54
51878;SHT31;37911;51.526;11.536;2023-02-10T06:43:37;-1.36;84.41
51878;SHT31;37911;51.526;11.536;2023-02-10T06:46:40;-1.39;84.04
51878;SHT31;37911;51.526;11.536;2023-02-10T06:49:43;-1.36;83.95
51878;SHT31;37911;51.526;11.536;2023-02-10T06:52:46;-1.45;83.90
51878;SHT31;37911;51.526;11.536;2023-02-10T06:55:55;-1.52;83.97
51878;SHT31;37911;51.526;11.536;2023-02-10T06:58:58;-1.46;83.93
51878;SHT31;37911;51.526;11.536;2023-02-10T07:02:02;-1.41;83.73
51878;SHT31;37911;51.526;11.536;2023-02-10T07:05:06;-1.36;83.64
51878;SHT31;37911;51.526;11.536;2023-02-10T07:08:10;-1.36;83.73
51878;SHT31;37911;51.526;11.536;2023-02-10T07:11:16;-1.34;84.10
51878;SHT31;37911;51.526;11.536;2023-02-10T07:14:19;-1.25;84.21
51878;SHT31;37911;51.526;11.536;2023-02-10T07:17:23;-1.19;84.15
51878;SHT31;37911;51.526;11.536;2023-02-10T07:20:26;-1.19;84.24
51878;SHT31;37911;51.526;11.536;2023-02-10T07:23:29;-1.14;84.31
51878;SHT31;37911;51.526;11.536;2023-02-10T07:26:35;-1.11;84.49
51878;SHT31;37911;51.526;11.536;2023-02-10T07:29:39;-1.12;84.44
51878;SHT31;37911;51.526;11.536;2023-02-10T07:32:42;-1.05;84.45
51878;SHT31;37911;51.526;11.536;2023-02-10T07:35:45;-1.00;84.37
51878;SHT31;37911;51.526;11.536;2023-02-10T07:38:48;-0.98;84.34
51878;SHT31;37911;51.526;11.536;2023-02-10T07:41:54;-0.97;84.32
51878;SHT31;37911;51.526;11.536;2023-02-10T07:45:08;-0.91;84.46
51878;SHT31;37911;51.526;11.536;2023-02-10T07:48:11;-0.84;84.53
51878;SHT31;37911;51.526;11.536;2023-02-10T07:51:15;-0.76;84.52
51878;SHT31;37911;51.526;11.536;2023-02-10T07:54:18;-0.67;84.71
51878;SHT31;37911;51.526;11.536;2023-02-10T07:57:24;-0.58;84.68
51878;SHT31;37911;51.526;11.536;2023-02-10T08:00:27;-0.50;84.74
51878;SHT31;37911;51.526;11.536;2023-02-10T08:03:31;-0.39;84.90
51878;SHT31;37911;51.526;11.536;2023-02-10T08:06:34;-0.20;84.64
51878;SHT31;37911;51.526;11.536;2023-02-10T08:09:37;-0.06;84.74
51878;SHT31;37911;51.526;11.536;2023-02-10T08:12:43;0.02;84.78
51878;SHT31;37911;51.526;11.536;2023-02-10T08:15:47;0.12;84.73
51878;SHT31;37911;51.526;11.536;2023-02-10T08:18:50;0.26;84.66
51878;SHT31;37911;51.526;11.536;2023-02-10T08:21:53;0.44;84.64
51878;SHT31;37911;51.526;11.536;2023-02-10T08:24:56;0.58;84.68
51878;SHT31;37911;51.526;11.536;2023-02-10T08:28:02;0.73;84.40
51878;SHT31;37911;51.526;11.536;2023-02-10T08:31:07;0.87;84.16
51878;SHT31;37911;51.526;11.536;2023-02-10T08:34:14;1.00;83.94
51878;SHT31;37911;51.526;11.536;2023-02-10T08:37:18;1.31;83.44
51878;SHT31;37911;51.526;11.536;2023-02-10T08:40:22;1.47;82.77
51878;SHT31;37911;51.526;11.536;2023-02-10T08:43:28;1.58;82.44
51878;SHT31;37911;51.526;11.536;2023-02-10T08:46:32;1.65;82.09
51878;SHT31;37911;51.526;11.536;2023-02-10T08:49:35;1.61;81.88
51878;SHT31;37911;51.526;11.536;2023-02-10T08:52:38;1.58;81.93
51878;SHT31;37911;51.526;11.536;2023-02-10T08:55:42;1.58;81.98
51878;SHT31;37911;51.526;11.536;2023-02-10T08:58:48;1.51;82.19
51878;SHT31;37911;51.526;11.536;2023-02-10T09:01:51;1.54;82.28
51878;SHT31;37911;51.526;11.536;2023-02-10T09:04:55;1.59;82.38
51878;SHT31;37911;51.526;11.536;2023-02-10T09:07:58;1.74;82.18
51878;SHT31;37911;51.526;11.536;2023-02-10T09:11:04;1.78;81.91
51878;SHT31;37911;51.526;11.536;2023-02-10T09:14:10;1.88;81.86
51878;SHT31;37911;51.526;11.536;2023-02-10T09:17:13;1.99;81.72
51878;SHT31;37911;51.526;11.536;2023-02-10T09:20:17;2.07;81.40
51878;SHT31;37911;51.526;11.536;2023-02-10T09:23:20;2.23;81.19
51878;SHT31;37911;51.526;11.536;2023-02-10T09:26:23;2.29;80.71
51878;SHT31;37911;51.526;11.536;2023-02-10T09:29:29;2.39;80.34
51878;SHT31;37911;51.526;11.536;2023-02-10T09:32:33;2.54;80.03
51878;SHT31;37911;51.526;11.536;2023-02-10T09:35:54;2.61;79.49
51878;SHT31;37911;51.526;11.536;2023-02-10T09:38:58;2.73;79.51
51878;SHT31;37911;51.526;11.536;2023-02-10T09:42:07;2.87;79.21
51878;SHT31;37911;51.526;11.536;2023-02-10T09:45:19;2.94;78.65
51878;SHT31;37911;51.526;11.536;2023-02-10T09:48:30;3.00;78.34
51878;SHT31;37911;51.526;11.536;2023-02-10T09:51:41;3.04;78.01
51878;SHT31;37911;51.526;11.536;2023-02-10T09:54:46;3.04;77.90
51878;SHT31;37911;51.526;11.536;2023-02-10T09:57:54;3.02;78.08
51878;SHT31;37911;51.526;11.536;2023-02-10T10:01:04;3.01;78.15
51878;SHT31;37911;51.526;11.536;2023-02-10T10:04:12;3.07;78.09
51878;SHT31;37911;51.526;11.536;2023-02-10T10:07:21;3.07;77.84
51878;SHT31;37911;51.526;11.536;2023-02-10T10:10:29;3.09;77.87
51878;SHT31;37911;51.526;11.536;2023-02-10T10:13:35;3.14;77.69
51878;SHT31;37911;51.526;11.536;2023-02-10T10:16:48;3.12;77.81
51878;SHT31;37911;51.526;11.536;2023-02-10T10:20:06;3.19;77.71
51878;SHT31;37911;51.526;11.536;2023-02-10T10:23:25;3.28;77.44
51878;SHT31;37911;51.526;11.536;2023-02-10T10:26:44;3.28;77.45
51878;SHT31;37911;51.526;11.536;2023-02-10T10:29:52;3.31;77.38
51878;SHT31;37911;51.526;11.536;2023-02-10T10:33:00;3.34;77.25
51878;SHT31;37911;51.526;11.536;2023-02-10T10:36:08;3.35;77.10
51878;SHT31;37911;51.526;11.536;2023-02-10T10:39:18;3.43;76.97
51878;SHT31;37911;51.526;11.536;2023-02-10T10:42:28;3.52;76.66
51878;SHT31;37911;51.526;11.536;2023-02-10T10:45:41;3.59;76.35
51878;SHT31;37911;51.526;11.536;2023-02-10T10:48:48;3.66;76.07
51878;SHT31;37911;51.526;11.536;2023-02-10T10:51:51;3.70;75.86
51878;SHT31;37911;51.526;11.536;2023-02-10T10:54:55;3.77;75.55
51878;SHT31;37911;51.526;11.536;2023-02-10T10:58:01;3.83;75.22
51878;SHT31;37911;51.526;11.536;2023-02-10T11:01:05;3.93;75.14
51878;SHT31;37911;51.526;11.536;2023-02-10T11:04:14;4.06;74.65
51878;SHT31;37911;51.526;11.536;2023-02-10T11:07:20;4.34;74.10
51878;SHT31;37911;51.526;11.536;2023-02-10T11:10:27;4.60;73.71
51878;SHT31;37911;51.526;11.536;2023-02-10T11:13:33;4.99;72.93
51878;SHT31;37911;51.526;11.536;2023-02-10T11:16:41;5.23;71.52
51878;SHT31;37911;51.526;11.536;2023-02-10T11:19:56;5.40;71.38
51878;SHT31;37911;51.526;11.536;2023-02-10T11:23:01;5.75;70.56
51878;SHT31;37911;51.526;11.536;2023-02-10T11:26:06;5.94;69.19
51878;SHT31;37911;51.526;11.536;2023-02-10T11:29:19;5.95;68.15
51878;SHT31;37911;51.526;11.536;2023-02-10T11:32:25;5.87;68.13
51878;SHT31;37911;51.526;11.536;2023-02-10T11:35:32;5.87;68.45
51878;SHT31;37911;51.526;11.536;2023-02-10T11:38:36;5.81;68.45
51878;SHT31;37911;51.526;11.536;2023-02-10T11:41:39;5.78;68.29
51878;SHT31;37911;51.526;11.536;2023-02-10T11:44:52;6.01;68.50
51878;SHT31;37911;51.526;11.536;2023-02-10T11:48:00;5.83;68.05
51878;SHT31;37911;51.526;11.536;2023-02-10T11:51:14;5.66;68.55
51878;SHT31;37911;51.526;11.536;2023-02-10T11:54:19;5.47;69.26
51878;SHT31;37911;51.526;11.536;2023-02-10T11:57:30;5.35;69.64
51878;SHT31;37911;51.526;11.536;2023-02-10T12:00:50;5.32;70.12
51878;SHT31;37911;51.526;11.536;2023-02-10T12:04:00;5.29;70.28
51878;SHT31;37911;51.526;11.536;2023-02-10T12:07:14;5.32;69.94
51878;SHT31;37911;51.526;11.536;2023-02-10T12:10:25;5.46;69.56
51878;SHT31;37911;51.526;11.536;2023-02-10T12:13:40;5.47;68.70
51878;SHT31;37911;51.526;11.536;2023-02-10T12:16:48;5.46;68.97
51878;SHT31;37911;51.526;11.536;2023-02-10T12:20:05;5.51;68.57
51878;SHT31;37911;51.526;11.536;2023-02-10T12:23:30;5.53;68.78
51878;SHT31;37911;51.526;11.536;2023-02-10T12:26:41;5.61;68.80
51878;SHT31;37911;51.526;11.536;2023-02-10T12:29:54;5.70;68.76
51878;SHT31;37911;51.526;11.536;2023-02-10T12:33:11;5.74;68.76
51878;SHT31;37911;51.526;11.536;2023-02-10T12:36:22;5.53;68.55
51878;SHT31;37911;51.526;11.536;2023-02-10T12:39:37;5.56;68.80
51878;SHT31;37911;51.526;11.536;2023-02-10T12:42:47;5.66;68.42
51878;SHT31;37911;51.526;11.536;2023-02-10T12:46:01;5.63;68.00
51878;SHT31;37911;51.526;11.536;2023-02-10T12:49:24;5.53;68.29
51878;SHT31;37911;51.526;11.536;2023-02-10T12:52:36;5.78;67.83
51878;SHT31;37911;51.526;11.536;2023-02-10T12:55:51;6.01;67.13
51878;SHT31;37911;51.526;11.536;2023-02-10T12:59:01;6.14;66.93
51878;SHT31;37911;51.526;11.536;2023-02-10T13:02:11;6.17;66.64
51878;SHT31;37911;51.526;11.536;2023-02-10T13:05:20;6.07;66.57
51878;SHT31;37911;51.526;11.536;2023-02-10T13:08:27;6.22;66.47
51878;SHT31;37911;51.526;11.536;2023-02-10T13:11:40;6.36;65.58
51878;SHT31;37911;51.526;11.536;2023-02-10T13:14:45;6.45;65.33
51878;SHT31;37911;51.526;11.536;2023-02-10T13:17:51;6.50;65.02
51878;SHT31;37911;51.526;11.536;2023-02-10T13:20:59;6.75;65.05
51878;SHT31;37911;51.526;11.536;2023-02-10T13:24:08;6.80;63.65
51878;SHT31;37911;51.526;11.536;2023-02-10T13:27:24;6.89;63.75
51878;SHT31;37911;51.526;11.536;2023-02-10T13:30:50;6.85;63.98
51878;SHT31;37911;51.526;11.536;2023-02-10T13:34:01;6.86;63.51
51878;SHT31;37911;51.526;11.536;2023-02-10T13:37:13;6.85;63.32
51878;SHT31;37911;51.526;11.536;2023-02-10T13:40:21;6.82;63.15
51878;SHT31;37911;51.526;11.536;2023-02-10T13:43:31;6.76;63.69
51878;SHT31;37911;51.526;11.536;2023-02-10T13:46:35;6.66;63.72
51878;SHT31;37911;51.526;11.536;2023-02-10T13:49:49;6.55;63.96
51878;SHT31;37911;51.526;11.536;2023-02-10T13:52:55;6.43;63.69
51878;SHT31;37911;51.526;11.536;2023-02-10T13:56:09;6.25;64.40
51878;SHT31;37911;51.526;11.536;2023-02-10T13:59:34;6.04;65.31
51878;SHT31;37911;51.526;11.536;2023-02-10T14:02:40;6.00;65.67
51878;SHT31;37911;51.526;11.536;2023-02-10T14:05:52;5.84;66.12
51878;SHT31;37911;51.526;11.536;2023-02-10T14:09:01;5.71;66.36
51878;SHT31;37911;51.526;11.536;2023-02-10T14:12:23;5.63;66.75
51878;SHT31;37911;51.526;11.536;2023-02-10T14:15:31;5.58;66.73
51878;SHT31;37911;51.526;11.536;2023-02-10T14:18:36;5.44;67.34
51878;SHT31;37911;51.526;11.536;2023-02-10T14:21:41;5.36;67.73
51878;SHT31;37911;51.526;11.536;2023-02-10T14:24:45;5.23;67.69
51878;SHT31;37911;51.526;11.536;2023-02-10T14:27:49;5.11;68.03
51878;SHT31;37911;51.526;11.536;2023-02-10T14:30:59;5.02;68.59
51878;SHT31;37911;51.526;11.536;2023-02-10T14:34:05;4.97;68.59
51878;SHT31;37911;51.526;11.536;2023-02-10T14:37:15;4.97;68.70
51878;SHT31;37911;51.526;11.536;2023-02-10T14:40:22;4.89;68.75
51878;SHT31;37911;51.526;11.536;2023-02-10T14:43:28;4.86;68.97
51878;SHT31;37911;51.526;11.536;2023-02-10T14:46:35;4.83;69.15
51878;SHT31;37911;51.526;11.536;2023-02-10T14:49:39;4.76;70.51
51878;SHT31;37911;51.526;11.536;2023-02-10T14:52:46;4.71;70.90
51878;SHT31;37911;51.526;11.536;2023-02-10T14:55:54;4.71;71.04
51878;SHT31;37911;51.526;11.536;2023-02-10T14:58:57;4.65;71.36
51878;SHT31;37911;51.526;11.536;2023-02-10T15:02:10;4.64;71.51
51878;SHT31;37911;51.526;11.536;2023-02-10T15:05:18;4.60;71.98
51878;SHT31;37911;51.526;11.536;2023-02-10T15:08:26;4.50;72.51
51878;SHT31;37911;51.526;11.536;2023-02-10T15:11:34;4.44;72.92
51878;SHT31;37911;51.526;11.536;2023-02-10T15:15:00;4.34;72.99
51878;SHT31;37911;51.526;11.536;2023-02-10T15:18:11;4.22;73.20
51878;SHT31;37911;51.526;11.536;2023-02-10T15:21:26;4.14;73.51
51878;SHT31;37911;51.526;11.536;2023-02-10T15:24:32;4.03;73.76
51878;SHT31;37911;51.526;11.536;2023-02-10T15:27:38;3.97;73.93
51878;SHT31;37911;51.526;11.536;2023-02-10T15:30:45;3.90;74.07
51878;SHT31;37911;51.526;11.536;2023-02-10T15:33:55;3.93;74.04
51878;SHT31;37911;51.526;11.536;2023-02-10T15:37:00;3.93;74.38
51878;SHT31;37911;51.526;11.536;2023-02-10T15:40:18;3.91;74.13
51878;SHT31;37911;51.526;11.536;2023-02-10T15:43:25;3.93;74.12
51878;SHT31;37911;51.526;11.536;2023-02-10T15:46:29;3.77;74.24
51878;SHT31;37911;51.526;11.536;2023-02-10T15:49:35;3.72;74.41
51878;SHT31;37911;51.526;11.536;2023-02-10T15:52:40;3.69;74.77
51878;SHT31;37911;51.526;11.536;2023-02-10T15:55:43;3.67;74.86
51878;SHT31;37911;51.526;11.536;2023-02-10T15:58:47;3.66;74.89
51878;SHT31;37911;51.526;11.536;2023-02-10T16:01:50;3.65;75.12
51878;SHT31;37911;51.526;11.536;2023-02-10T16:04:56;3.67;75.06
51878;SHT31;37911;51.526;11.536;2023-02-10T16:08:02;3.49;75.13
51878;SHT31;37911;51.526;11.536;2023-02-10T16:11:08;3.54;75.42
51878;SHT31;37911;51.526;11.536;2023-02-10T16:14:12;3.55;75.32
51878;SHT31;37911;51.526;11.536;2023-02-10T16:17:19;3.48;75.40
51878;SHT31;37911;51.526;11.536;2023-02-10T16:20:27;3.42;75.77
51878;SHT31;37911;51.526;11.536;2023-02-10T16:23:30;3.31;75.77
51878;SHT31;37911;51.526;11.536;2023-02-10T16:26:33;3.16;76.04
51878;SHT31;37911;51.526;11.536;2023-02-10T16:29:37;3.08;76.35
51878;SHT31;37911;51.526;11.536;2023-02-10T16:32:40;3.01;76.72
51878;SHT31;37911;51.526;11.536;2023-02-10T16:35:46;3.04;76.81
51878;SHT31;37911;51.526;11.536;2023-02-10T16:38:50;3.04;76.69
51878;SHT31;37911;51.526;11.536;2023-02-10T16:41:54;2.95;76.66
51878;SHT31;37911;51.526;11.536;2023-02-10T16:44:58;2.91;76.79
51878;SHT31;37911;51.526;11.536;2023-02-10T16:48:01;3.36;78.56
51878;SHT31;37911;51.526;11.536;2023-02-10T16:51:07;4.01;77.76
51878;SHT31;37911;51.526;11.536;2023-02-10T16:54:11;3.97;73.27
51878;SHT31;37911;51.526;11.536;2023-02-10T16:57:14;3.59;73.52
51878;SHT31;37911;51.526;11.536;2023-02-10T17:00:18;3.29;74.38
51878;SHT31;37911;51.526;11.536;2023-02-10T17:03:21;3.15;74.89
51878;SHT31;37911;51.526;11.536;2023-02-10T17:06:28;3.00;75.20
51878;SHT31;37911;51.526;11.536;2023-02-10T17:09:32;2.88;75.67
51878;SHT31;37911;51.526;11.536;2023-02-10T17:12:36;2.76;76.00
51878;SHT31;37911;51.526;11.536;2023-02-10T17:15:39;2.68;76.20
51878;SHT31;37911;51.526;11.536;2023-02-10T17:18:42;2.60;76.35
51878;SHT31;37911;51.526;11.536;2023-02-10T17:21:48;2.54;76.67
51878;SHT31;37911;51.526;11.536;2023-02-10T17:24:51;2.63;76.72
51878;SHT31;37911;51.526;11.536;2023-02-10T17:27:55;2.64;76.42
51878;SHT31;37911;51.526;11.536;2023-02-10T17:30:58;2.53;76.51
51878;SHT31;37911;51.526;11.536;2023-02-10T17:34:01;2.50;76.83
51878;SHT31;37911;51.526;11.536;2023-02-10T17:37:07;2.76;78.83
51878;SHT31;37911;51.526;11.536;2023-02-10T17:40:11;4.01;77.26
51878;SHT31;37911;51.526;11.536;2023-02-10T17:43:30;4.91;74.04
51878;SHT31;37911;51.526;11.536;2023-02-10T17:46:34;6.25;73.10
51878;SHT31;37911;51.526;11.536;2023-02-10T17:49:37;7.03;67.38
51878;SHT31;37911;51.526;11.536;2023-02-10T17:52:43;7.23;68.92
51878;SHT31;37911;51.526;11.536;2023-02-10T17:55:46;6.87;69.73
51878;SHT31;37911;51.526;11.536;2023-02-10T17:58:50;6.96;67.37
51878;SHT31;37911;51.526;11.536;2023-02-10T18:01:53;6.94;66.01
51878;SHT31;37911;51.526;11.536;2023-02-10T18:04:58;6.46;65.80
51878;SHT31;37911;51.526;11.536;2023-02-10T18:08:04;6.11;71.10
51878;SHT31;37911;51.526;11.536;2023-02-10T18:11:07;5.94;69.28
51878;SHT31;37911;51.526;11.536;2023-02-10T18:14:11;6.08;73.31
51878;SHT31;37911;51.526;11.536;2023-02-10T18:17:14;6.26;68.89
51878;SHT31;37911;51.526;11.536;2023-02-10T18:20:18;6.08;67.53
51878;SHT31;37911;51.526;11.536;2023-02-10T18:23:25;5.88;67.70
51878;SHT31;37911;51.526;11.536;2023-02-10T18:26:28;6.11;69.99
51878;SHT31;37911;51.526;11.536;2023-02-10T18:29:31;5.83;66.94
51878;SHT31;37911;51.526;11.536;2023-02-10T18:32:35;5.57;67.28
51878;SHT31;37911;51.526;11.536;2023-02-10T18:35:41;5.84;67.61
51878;SHT31;37911;51.526;11.536;2023-02-10T18:38:47;5.75;67.63
51878;SHT31;37911;51.526;11.536;2023-02-10T18:41:51;5.74;69.30
51878;SHT31;37911;51.526;11.536;2023-02-10T18:44:54;5.70;66.31
51878;SHT31;37911;51.526;11.536;2023-02-10T18:47:57;5.83;67.37
51878;SHT31;37911;51.526;11.536;2023-02-10T18:51:03;6.05;68.85
51878;SHT31;37911;51.526;11.536;2023-02-10T18:54:09;6.43;66.38
51878;SHT31;37911;51.526;11.536;2023-02-10T18:57:12;6.33;64.80
51878;SHT31;37911;51.526;11.536;2023-02-10T19:00:16;6.33;65.46
51878;SHT31;37911;51.526;11.536;2023-02-10T19:03:19;6.08;65.99
51878;SHT31;37911;51.526;11.536;2023-02-10T19:06:23;6.02;66.35
51878;SHT31;37911;51.526;11.536;2023-02-10T19:09:28;6.26;67.12
51878;SHT31;37911;51.526;11.536;2023-02-10T19:12:32;6.43;65.38
51878;SHT31;37911;51.526;11.536;2023-02-10T19:15:35;6.59;66.24
51878;SHT31;37911;51.526;11.536;2023-02-10T19:18:50;7.64;67.09
51878;SHT31;37911;51.526;11.536;2023-02-10T19:21:54;7.79;60.76
51878;SHT31;37911;51.526;11.536;2023-02-10T19:25:00;6.79;62.26
51878;SHT31;37911;51.526;11.536;2023-02-10T19:28:03;5.86;64.74
51878;SHT31;37911;51.526;11.536;2023-02-10T19:31:09;5.03;67.05
51878;SHT31;37911;51.526;11.536;2023-02-10T19:34:12;4.36;69.21